sensor_id;sensor_type;location;lat;lon;timestamp;temperature;humidity
67273;DHT22;54190;49.770;9.250;2023-11-21T00:00:45;8.70;99.90
67273;DHT22;54190;49.770;9.250;2023-11-21T00:03:11;8.70;99.90
67273;DHT22;54190;49.770;9.250;2023-11-21T00:05:43;8.70;99.90
67273;DHT22;54190;49.770;9.250;2023-11-21T00:08:09;8.70;99.90
67273;DHT22;54190;49.770;9.250;2023-11-21T00:10:35;8.70;99.90
67273;DHT22;54190;49.770;9.250;2023-11-21T00:13:00;8.70;99.90
67273;DHT22;54190;49.770;9.250;2023-11-21T00:15:28;8.60;99.90
67273;DHT22;54190;49.770;9.250;2023-11-21T00:17:53;8.60;99.90
67273;DHT22;54190;49.770;9.250;2023-11-21T00:20:19;8.60;99.90
67273;DHT22;54190;49.770;9.250;2023-11-21T00:22:45;8.50;99.90
67273;DHT22;54190;49.770;9.250;2023-11-21T00:25:12;8.50;99.90
67273;DHT22;54190;49.770;9.250;2023-11-21T00:27:39;8.50;99.90
67273;DHT22;54190;49.770;9.250;2023-11-21T00:30:05;8.50;99.90
67273;DHT22;54190;49.770;9.250;2023-11-21T00:32:33;8.50;99.90
67273;DHT22;54190;49.770;9.250;2023-11-21T00:34:58;8.60;99.90
67273;DHT22;54190;49.770;9.250;2023-11-21T00:37:24;8.60;99.90
67273;DHT22;54190;49.770;9.250;2023-11-21T00:39:50;8.60;99.90
67273;DHT22;54190;49.770;9.250;2023-11-21T00:42:16;8.60;99.90
67273;DHT22;54190;49.770;9.250;2023-11-21T00:44:41;8.60;99.90
67273;DHT22;54190;49.770;9.250;2023-11-21T00:47:08;8.60;99.90
67273;DHT22;54190;49.770;9.250;2023-11-21T00:49:33;8.60;99.90
67273;DHT22;54190;49.770;9.250;2023-11-21T00:51:59;8.60;99.90
67273;DHT22;54190;49.770;9.250;2023-11-21T00:54:27;8.60;99.90
67273;DHT22;54190;49.770;9.250;2023-11-21T00:56:53;8.70;99.90
67273;DHT22;54190;49.770;9.250;2023-11-21T00:59:18;8.60;99.90
67273;DHT22;54190;49.770;9.250;2023-11-21T01:01:44;8.60;99.90
67273;DHT22;54190;49.770;9.250;2023-11-21T01:04:09;8.60;99.90
67273;DHT22;54190;49.770;9.250;2023-11-21T01:06:35;8.60;99.90
67273;DHT22;54190;49.770;9.250;2023-11-21T01:09:01;8.60;99.90
67273;DHT22;54190;49.770;9.250;2023-11-21T01:11:29;8.70;99.90
67273;DHT22;54190;49.770;9.250;2023-11-21T01:13:55;8.60;99.90
67273;DHT22;54190;49.770;9.250;2023-11-21T01:16:20;8.70;99.90
67273;DHT22;54190;49.770;9.250;2023-11-21T01:18:46;8.70;99.90
67273;DHT22;54190;49.770;9.250;2023-11-21T01:21:12;8.70;99.90
67273;DHT22;54190;49.770;9.250;2023-11-21T01:23:37;8.70;99.90
67273;DHT22;54190;49.770;9.250;2023-11-21T01:26:03;8.70;99.90
67273;DHT22;54190;49.770;9.250;2023-11-21T01:28:29;8.70;99.90
67273;DHT22;54190;49.770;9.250;2023-11-21T01:30:54;8.70;99.90
67273;DHT22;54190;49.770;9.250;2023-11-21T01:33:22;8.60;99.90
67273;DHT22;54190;49.770;9.250;2023-11-21T01:35:49;8.60;99.90
67273;DHT22;54190;49.770;9.250;2023-11-21T01:38:14;8.60;99.90
67273;DHT22;54190;49.770;9.250;2023-11-21T01:40:40;8.60;99.90
67273;DHT22;54190;49.770;9.250;2023-11-21T01:43:06;8.50;99.90
67273;DHT22;54190;49.770;9.250;2023-11-21T01:45:34;8.50;99.90
67273;DHT22;54190;49.770;9.250;2023-11-21T01:48:00;8.50;99.90
67273;DHT22;54190;49.770;9.250;2023-11-21T01:50:26;8.50;99.90
67273;DHT22;54190;49.770;9.250;2023-11-21T01:52:53;8.50;99.90
67273;DHT22;54190;49.770;9.250;2023-11-21T01:55:19;8.50;99.90
67273;DHT22;54190;49.770;9.250;2023-11-21T01:57:46;8.50;99.90
67273;DHT22;54190;49.770;9.250;2023-11-21T02:00:12;8.50;99.90
67273;DHT22;54190;49.770;9.250;2023-11-21T02:02:48;8.50;99.90
67273;DHT22;54190;49.770;9.250;2023-11-21T02:05:18;8.50;99.90
67273;DHT22;54190;49.770;9.250;2023-11-21T02:07:44;8.50;99.90
67273;DHT22;54190;49.770;9.250;2023-11-21T02:10:11;8.60;99.90
67273;DHT22;54190;49.770;9.250;2023-11-21T02:12:43;8.60;99.90
67273;DHT22;54190;49.770;9.250;2023-11-21T02:15:13;8.50;99.90
67273;DHT22;54190;49.770;9.250;2023-11-21T02:17:49;8.50;99.90
67273;DHT22;54190;49.770;9.250;2023-11-21T02:20:22;8.50;99.90
67273;DHT22;54190;49.770;9.250;2023-11-21T02:22:54;8.50;99.90
67273;DHT22;54190;49.770;9.250;2023-11-21T02:25:27;8.50;99.90
67273;DHT22;54190;49.770;9.250;2023-11-21T02:27:54;8.50;99.90
67273;DHT22;54190;49.770;9.250;2023-11-21T02:30:21;8.50;99.90
67273;DHT22;54190;49.770;9.250;2023-11-21T02:32:48;8.50;99.90
67273;DHT22;54190;49.770;9.250;2023-11-21T02:35:14;8.50;99.90
67273;DHT22;54190;49.770;9.250;2023-11-21T02:37:41;8.50;99.90
67273;DHT22;54190;49.770;9.250;2023-11-21T02:40:09;8.50;99.90
67273;DHT22;54190;49.770;9.250;2023-11-21T02:42:35;8.50;99.90
67273;DHT22;54190;49.770;9.250;2023-11-21T02:45:01;8.50;99.90
67273;DHT22;54190;49.770;9.250;2023-11-21T02:47:27;8.50;99.90
67273;DHT22;54190;49.770;9.250;2023-11-21T02:49:52;8.50;99.90
67273;DHT22;54190;49.770;9.250;2023-11-21T02:52:18;8.60;99.90
67273;DHT22;54190;49.770;9.250;2023-11-21T02:54:44;8.60;99.90
67273;DHT22;54190;49.770;9.250;2023-11-21T02:57:10;8.60;99.90
67273;DHT22;54190;49.770;9.250;2023-11-21T02:59:36;8.60;99.90
67273;DHT22;54190;49.770;9.250;2023-11-21T03:02:01;8.60;99.90
67273;DHT22;54190;49.770;9.250;2023-11-21T03:04:27;8.60;99.90
67273;DHT22;54190;49.770;9.250;2023-11-21T03:06:53;8.60;99.90
67273;DHT22;54190;49.770;9.250;2023-11-21T03:09:18;8.60;99.90
67273;DHT22;54190;49.770;9.250;2023-11-21T03:11:44;8.60;99.90
67273;DHT22;54190;49.770;9.250;2023-11-21T03:14:09;8.60;99.90
67273;DHT22;54190;49.770;9.250;2023-11-21T03:16:36;8.60;99.90
67273;DHT22;54190;49.770;9.250;2023-11-21T03:19:03;8.60;99.90
67273;DHT22;54190;49.770;9.250;2023-11-21T03:21:30;8.60;99.90
67273;DHT22;54190;49.770;9.250;2023-11-21T03:23:56;8.60;99.90
67273;DHT22;54190;49.770;9.250;2023-11-21T03:26:21;8.50;99.90
67273;DHT22;54190;49.770;9.250;2023-11-21T03:28:47;8.50;99.90
67273;DHT22;54190;49.770;9.250;2023-11-21T03:31:13;8.50;99.90
67273;DHT22;54190;49.770;9.250;2023-11-21T03:33:38;8.60;99.90
67273;DHT22;54190;49.770;9.250;2023-11-21T03:36:04;8.60;99.90
67273;DHT22;54190;49.770;9.250;2023-11-21T03:38:30;8.60;99.90
67273;DHT22;54190;49.770;9.250;2023-11-21T03:40:56;8.50;99.90
67273;DHT22;54190;49.770;9.250;2023-11-21T03:43:21;8.50;99.90
67273;DHT22;54190;49.770;9.250;2023-11-21T03:45:47;8.50;99.90
67273;DHT22;54190;49.770;9.250;2023-11-21T03:48:14;8.40;99.90
67273;DHT22;54190;49.770;9.250;2023-11-21T03:50:39;8.30;99.90
67273;DHT22;54190;49.770;9.250;2023-11-21T03:53:06;8.30;99.90
67273;DHT22;54190;49.770;9.250;2023-11-21T03:55:31;8.30;99.90
67273;DHT22;54190;49.770;9.250;2023-11-21T03:57:58;8.20;99.90
67273;DHT22;54190;49.770;9.250;2023-11-21T04:00:24;8.20;99.90
67273;DHT22;54190;49.770;9.250;2023-11-21T04:02:52;8.20;99.90
67273;DHT22;54190;49.770;9.250;2023-11-21T04:05:19;8.20;99.90
67273;DHT22;54190;49.770;9.250;2023-11-21T04:07:45;8.30;99.90
67273;DHT22;54190;49.770;9.250;2023-11-21T04:10:11;8.30;99.90
67273;DHT22;54190;49.770;9.250;2023-11-21T04:12:38;8.30;99.90
67273;DHT22;54190;49.770;9.250;2023-11-21T04:15:04;8.40;99.90
67273;DHT22;54190;49.770;9.250;2023-11-21T04:17:30;8.40;99.90
67273;DHT22;54190;49.770;9.250;2023-11-21T04:19:56;8.40;99.90
67273;DHT22;54190;49.770;9.250;2023-11-21T04:22:22;8.40;99.90
67273;DHT22;54190;49.770;9.250;2023-11-21T04:24:47;8.40;99.90
67273;DHT22;54190;49.770;9.250;2023-11-21T04:27:13;8.40;99.90
67273;DHT22;54190;49.770;9.250;2023-11-21T04:29:39;8.40;99.90
67273;DHT22;54190;49.770;9.250;2023-11-21T04:32:06;8.40;99.90
67273;DHT22;54190;49.770;9.250;2023-11-21T04:34:33;8.40;99.90
67273;DHT22;54190;49.770;9.250;2023-11-21T04:37:00;8.40;99.90
67273;DHT22;54190;49.770;9.250;2023-11-21T04:39:26;8.30;99.90
67273;DHT22;54190;49.770;9.250;2023-11-21T04:41:52;8.20;99.90
67273;DHT22;54190;49.770;9.250;2023-11-21T04:44:17;8.20;99.90
67273;DHT22;54190;49.770;9.250;2023-11-21T04:46:43;8.10;99.90
67273;DHT22;54190;49.770;9.250;2023-11-21T04:49:09;8.10;99.90
67273;DHT22;54190;49.770;9.250;2023-11-21T04:51:36;8.10;99.90
67273;DHT22;54190;49.770;9.250;2023-11-21T04:54:02;8.10;99.90
67273;DHT22;54190;49.770;9.250;2023-11-21T04:56:28;8.20;99.90
67273;DHT22;54190;49.770;9.250;2023-11-21T04:58:54;8.20;99.90
67273;DHT22;54190;49.770;9.250;2023-11-21T05:01:19;8.30;99.90
67273;DHT22;54190;49.770;9.250;2023-11-21T05:03:45;8.30;99.90
67273;DHT22;54190;49.770;9.250;2023-11-21T05:06:12;8.40;99.90
67273;DHT22;54190;49.770;9.250;2023-11-21T05:08:37;8.40;99.90
67273;DHT22;54190;49.770;9.250;2023-11-21T05:11:03;8.50;99.90
67273;DHT22;54190;49.770;9.250;2023-11-21T05:13:29;8.50;99.90
67273;DHT22;54190;49.770;9.250;2023-11-21T05:15:55;8.50;99.90
67273;DHT22;54190;49.770;9.250;2023-11-21T05:18:23;8.50;99.90
67273;DHT22;54190;49.770;9.250;2023-11-21T05:20:52;8.40;99.90
67273;DHT22;54190;49.770;9.250;2023-11-21T05:23:19;8.40;99.90
67273;DHT22;54190;49.770;9.250;2023-11-21T05:25:44;8.50;99.90
67273;DHT22;54190;49.770;9.250;2023-11-21T05:28:12;8.50;99.90
67273;DHT22;54190;49.770;9.250;2023-11-21T05:30:37;8.50;99.90
67273;DHT22;54190;49.770;9.250;2023-11-21T05:33:05;8.50;99.90
67273;DHT22;54190;49.770;9.250;2023-11-21T05:35:30;8.50;99.90
67273;DHT22;54190;49.770;9.250;2023-11-21T05:37:56;8.40;99.90
67273;DHT22;54190;49.770;9.250;2023-11-21T05:40:22;8.50;99.90
67273;DHT22;54190;49.770;9.250;2023-11-21T05:42:50;8.50;99.90
67273;DHT22;54190;49.770;9.250;2023-11-21T05:45:16;8.50;99.90
67273;DHT22;54190;49.770;9.250;2023-11-21T05:47:44;8.40;99.90
67273;DHT22;54190;49.770;9.250;2023-11-21T05:50:12;8.40;99.90
67273;DHT22;54190;49.770;9.250;2023-11-21T05:52:41;8.40;99.90
67273;DHT22;54190;49.770;9.250;2023-11-21T05:55:07;8.40;99.90
67273;DHT22;54190;49.770;9.250;2023-11-21T05:57:43;8.30;99.90
67273;DHT22;54190;49.770;9.250;2023-11-21T06:00:11;8.30;99.90
67273;DHT22;54190;49.770;9.250;2023-11-21T06:02:54;8.20;99.90
67273;DHT22;54190;49.770;9.250;2023-11-21T06:05:22;8.30;99.90
67273;DHT22;54190;49.770;9.250;2023-11-21T06:07:54;8.20;99.90
67273;DHT22;54190;49.770;9.250;2023-11-21T06:10:22;8.30;99.90
67273;DHT22;54190;49.770;9.250;2023-11-21T06:12:49;8.30;99.90
67273;DHT22;54190;49.770;9.250;2023-11-21T06:15:15;8.30;99.90
67273;DHT22;54190;49.770;9.250;2023-11-21T06:17:42;8.30;99.90
67273;DHT22;54190;49.770;9.250;2023-11-21T06:20:11;8.30;99.90
67273;DHT22;54190;49.770;9.250;2023-11-21T06:22:41;8.30;99.90
67273;DHT22;54190;49.770;9.250;2023-11-21T06:25:07;8.20;99.90
67273;DHT22;54190;49.770;9.250;2023-11-21T06:27:38;8.20;99.90
67273;DHT22;54190;49.770;9.250;2023-11-21T06:30:04;8.30;99.90
67273;DHT22;54190;49.770;9.250;2023-11-21T06:32:30;8.30;99.90
67273;DHT22;54190;49.770;9.250;2023-11-21T06:34:56;8.30;99.90
67273;DHT22;54190;49.770;9.250;2023-11-21T06:37:26;8.30;99.90
67273;DHT22;54190;49.770;9.250;2023-11-21T06:39:52;8.20;99.90
67273;DHT22;54190;49.770;9.250;2023-11-21T06:42:18;8.20;99.90
67273;DHT22;54190;49.770;9.250;2023-11-21T06:44:47;8.20;99.90
67273;DHT22;54190;49.770;9.250;2023-11-21T06:47:14;8.20;99.90
67273;DHT22;54190;49.770;9.250;2023-11-21T06:49:41;8.20;99.90
67273;DHT22;54190;49.770;9.250;2023-11-21T06:52:06;8.20;99.90
67273;DHT22;54190;49.770;9.250;2023-11-21T06:54:32;8.20;99.90
67273;DHT22;54190;49.770;9.250;2023-11-21T06:56:58;8.20;99.90
67273;DHT22;54190;49.770;9.250;2023-11-21T06:59:24;8.20;99.90
67273;DHT22;54190;49.770;9.250;2023-11-21T07:01:50;8.30;99.90
67273;DHT22;54190;49.770;9.250;2023-11-21T07:04:15;8.30;99.90
67273;DHT22;54190;49.770;9.250;2023-11-21T07:06:41;8.30;99.90
67273;DHT22;54190;49.770;9.250;2023-11-21T07:09:08;8.40;99.90
67273;DHT22;54190;49.770;9.250;2023-11-21T07:11:34;8.40;99.90
67273;DHT22;54190;49.770;9.250;2023-11-21T07:14:00;8.40;99.90
67273;DHT22;54190;49.770;9.250;2023-11-21T07:16:32;8.40;99.90
67273;DHT22;54190;49.770;9.250;2023-11-21T07:19:00;8.40;99.90
67273;DHT22;54190;49.770;9.250;2023-11-21T07:21:25;8.40;99.90
67273;DHT22;54190;49.770;9.250;2023-11-21T07:23:51;8.40;99.90
67273;DHT22;54190;49.770;9.250;2023-11-21T07:26:17;8.40;99.90
67273;DHT22;54190;49.770;9.250;2023-11-21T07:28:43;8.50;99.90
67273;DHT22;54190;49.770;9.250;2023-11-21T07:31:08;8.50;99.90
67273;DHT22;54190;49.770;9.250;2023-11-21T07:33:34;8.50;99.90
67273;DHT22;54190;49.770;9.250;2023-11-21T07:35:59;8.50;99.90
67273;DHT22;54190;49.770;9.250;2023-11-21T07:38:26;8.40;99.90
67273;DHT22;54190;49.770;9.250;2023-11-21T07:40:53;8.50;99.90
67273;DHT22;54190;49.770;9.250;2023-11-21T07:43:19;8.40;99.90
67273;DHT22;54190;49.770;9.250;2023-11-21T07:45:45;8.40;99.90
67273;DHT22;54190;49.770;9.250;2023-11-21T07:48:10;8.40;99.90
67273;DHT22;54190;49.770;9.250;2023-11-21T07:50:36;8.40;99.90
67273;DHT22;54190;49.770;9.250;2023-11-21T07:53:01;8.40;99.90
67273;DHT22;54190;49.770;9.250;2023-11-21T07:55:30;8.40;99.90
67273;DHT22;54190;49.770;9.250;2023-11-21T07:57:57;8.40;99.90
67273;DHT22;54190;49.770;9.250;2023-11-21T08:00:23;8.40;99.90
67273;DHT22;54190;49.770;9.250;2023-11-21T08:02:49;8.40;99.90
67273;DHT22;54190;49.770;9.250;2023-11-21T08:05:16;8.30;99.90
67273;DHT22;54190;49.770;9.250;2023-11-21T08:07:41;8.40;99.90
67273;DHT22;54190;49.770;9.250;2023-11-21T08:10:07;8.40;99.90
67273;DHT22;54190;49.770;9.250;2023-11-21T08:12:35;8.40;99.90
67273;DHT22;54190;49.770;9.250;2023-11-21T08:15:01;8.40;99.90
67273;DHT22;54190;49.770;9.250;2023-11-21T08:17:28;8.40;99.90
67273;DHT22;54190;49.770;9.250;2023-11-21T08:19:54;8.40;99.90
67273;DHT22;54190;49.770;9.250;2023-11-21T08:22:20;8.40;99.90
67273;DHT22;54190;49.770;9.250;2023-11-21T08:24:46;8.40;99.90
67273;DHT22;54190;49.770;9.250;2023-11-21T08:27:12;8.40;99.90
67273;DHT22;54190;49.770;9.250;2023-11-21T08:29:41;8.40;99.90
67273;DHT22;54190;49.770;9.250;2023-11-21T08:32:07;8.40;99.90
67273;DHT22;54190;49.770;9.250;2023-11-21T08:34:33;8.50;99.90
67273;DHT22;54190;49.770;9.250;2023-11-21T08:36:58;8.50;99.90
67273;DHT22;54190;49.770;9.250;2023-11-21T08:39:24;8.50;99.90
67273;DHT22;54190;49.770;9.250;2023-11-21T08:41:50;8.50;99.90
67273;DHT22;54190;49.770;9.250;2023-11-21T08:44:17;8.60;99.90
67273;DHT22;54190;49.770;9.250;2023-11-21T08:46:46;8.60;99.90
67273;DHT22;54190;49.770;9.250;2023-11-21T08:49:12;8.60;99.90
67273;DHT22;54190;49.770;9.250;2023-11-21T08:51:38;8.50;99.90
67273;DHT22;54190;49.770;9.250;2023-11-21T08:54:04;8.60;99.90
67273;DHT22;54190;49.770;9.250;2023-11-21T08:56:34;8.60;99.90
67273;DHT22;54190;49.770;9.250;2023-11-21T08:58:59;8.60;99.90
67273;DHT22;54190;49.770;9.250;2023-11-21T09:01:29;8.60;99.90
67273;DHT22;54190;49.770;9.250;2023-11-21T09:03:57;8.60;99.90
67273;DHT22;54190;49.770;9.250;2023-11-21T09:06:23;8.70;99.90
67273;DHT22;54190;49.770;9.250;2023-11-21T09:08:49;8.70;99.90
67273;DHT22;54190;49.770;9.250;2023-11-21T09:11:15;8.80;99.90
67273;DHT22;54190;49.770;9.250;2023-11-21T09:13:41;8.80;99.90
67273;DHT22;54190;49.770;9.250;2023-11-21T09:16:06;8.80;99.90
67273;DHT22;54190;49.770;9.250;2023-11-21T09:18:32;8.80;99.90
67273;DHT22;54190;49.770;9.250;2023-11-21T09:20:58;8.80;99.90
67273;DHT22;54190;49.770;9.250;2023-11-21T09:23:24;8.90;99.90
67273;DHT22;54190;49.770;9.250;2023-11-21T09:25:49;8.90;99.90
67273;DHT22;54190;49.770;9.250;2023-11-21T09:28:17;8.90;99.90
67273;DHT22;54190;49.770;9.250;2023-11-21T09:30:43;8.90;99.90
67273;DHT22;54190;49.770;9.250;2023-11-21T09:33:09;8.90;99.90
67273;DHT22;54190;49.770;9.250;2023-11-21T09:35:39;8.90;99.90
67273;DHT22;54190;49.770;9.250;2023-11-21T09:38:05;9.00;99.90
67273;DHT22;54190;49.770;9.250;2023-11-21T09:40:37;9.00;99.90
67273;DHT22;54190;49.770;9.250;2023-11-21T09:43:09;8.90;99.90
67273;DHT22;54190;49.770;9.250;2023-11-21T09:45:48;8.90;99.90
67273;DHT22;54190;49.770;9.250;2023-11-21T09:48:16;8.90;99.90
67273;DHT22;54190;49.770;9.250;2023-11-21T09:50:43;9.00;99.90
67273;DHT22;54190;49.770;9.250;2023-11-21T09:53:22;9.00;99.90
67273;DHT22;54190;49.770;9.250;2023-11-21T09:55:51;9.00;99.90
67273;DHT22;54190;49.770;9.250;2023-11-21T09:58:18;9.10;99.90
67273;DHT22;54190;49.770;9.250;2023-11-21T10:00:47;9.10;99.90
67273;DHT22;54190;49.770;9.250;2023-11-21T10:03:13;9.00;99.90
67273;DHT22;54190;49.770;9.250;2023-11-21T10:05:40;9.00;99.90
67273;DHT22;54190;49.770;9.250;2023-11-21T10:08:08;9.00;99.90
67273;DHT22;54190;49.770;9.250;2023-11-21T10:10:36;8.90;99.90
67273;DHT22;54190;49.770;9.250;2023-11-21T10:13:05;8.90;99.90
67273;DHT22;54190;49.770;9.250;2023-11-21T10:15:34;9.00;99.90
67273;DHT22;54190;49.770;9.250;2023-11-21T10:18:03;9.00;99.90
67273;DHT22;54190;49.770;9.250;2023-11-21T10:20:31;9.00;99.90
67273;DHT22;54190;49.770;9.250;2023-11-21T10:22:57;9.00;99.90
67273;DHT22;54190;49.770;9.250;2023-11-21T10:25:22;9.00;99.90
67273;DHT22;54190;49.770;9.250;2023-11-21T10:27:49;9.00;99.90
67273;DHT22;54190;49.770;9.250;2023-11-21T10:30:18;9.00;99.90
67273;DHT22;54190;49.770;9.250;2023-11-21T10:32:43;9.10;99.90
67273;DHT22;54190;49.770;9.250;2023-11-21T10:35:10;9.10;99.90
67273;DHT22;54190;49.770;9.250;2023-11-21T10:37:37;9.20;99.90
67273;DHT22;54190;49.770;9.250;2023-11-21T10:40:07;9.20;99.90
67273;DHT22;54190;49.770;9.250;2023-11-21T10:42:34;9.20;99.90
67273;DHT22;54190;49.770;9.250;2023-11-21T10:45:00;9.20;99.90
67273;DHT22;54190;49.770;9.250;2023-11-21T10:47:26;9.30;99.90
67273;DHT22;54190;49.770;9.250;2023-11-21T10:49:52;9.40;99.90
67273;DHT22;54190;49.770;9.250;2023-11-21T10:52:20;9.40;99.90
67273;DHT22;54190;49.770;9.250;2023-11-21T10:54:46;9.40;99.90
67273;DHT22;54190;49.770;9.250;2023-11-21T10:57:17;9.30;99.90
67273;DHT22;54190;49.770;9.250;2023-11-21T10:59:46;9.30;99.90
67273;DHT22;54190;49.770;9.250;2023-11-21T11:02:23;9.30;99.90
67273;DHT22;54190;49.770;9.250;2023-11-21T11:04:52;9.30;99.90
67273;DHT22;54190;49.770;9.250;2023-11-21T11:07:20;9.20;99.90
67273;DHT22;54190;49.770;9.250;2023-11-21T11:09:46;9.20;99.90
67273;DHT22;54190;49.770;9.250;2023-11-21T11:12:13;9.30;99.90
67273;DHT22;54190;49.770;9.250;2023-11-21T11:14:41;9.30;99.90
67273;DHT22;54190;49.770;9.250;2023-11-21T11:17:07;9.40;99.90
67273;DHT22;54190;49.770;9.250;2023-11-21T11:19:34;9.40;99.90
67273;DHT22;54190;49.770;9.250;2023-11-21T11:22:38;9.40;99.90
67273;DHT22;54190;49.770;9.250;2023-11-21T11:28:15;9.50;99.90
67273;DHT22;54190;49.770;9.250;2023-11-21T11:33:41;9.60;99.90
67273;DHT22;54190;49.770;9.250;2023-11-21T11:36:37;9.70;99.90
67273;DHT22;54190;49.770;9.250;2023-11-21T11:39:29;9.70;99.90
67273;DHT22;54190;49.770;9.250;2023-11-21T11:41:57;9.70;99.90
67273;DHT22;54190;49.770;9.250;2023-11-21T11:47:15;9.60;99.90
67273;DHT22;54190;49.770;9.250;2023-11-21T11:50:00;9.60;99.90
67273;DHT22;54190;49.770;9.250;2023-11-21T11:52:37;9.60;99.90
67273;DHT22;54190;49.770;9.250;2023-11-21T11:55:06;9.60;99.90
67273;DHT22;54190;49.770;9.250;2023-11-21T11:57:35;9.60;99.90
67273;DHT22;54190;49.770;9.250;2023-11-21T12:00:21;9.60;99.90
67273;DHT22;54190;49.770;9.250;2023-11-21T12:02:58;9.50;99.90
67273;DHT22;54190;49.770;9.250;2023-11-21T12:05:26;9.50;99.90
67273;DHT22;54190;49.770;9.250;2023-11-21T12:08:00;9.50;99.90
67273;DHT22;54190;49.770;9.250;2023-11-21T12:10:36;9.50;99.90
67273;DHT22;54190;49.770;9.250;2023-11-21T12:13:07;9.50;99.90
67273;DHT22;54190;49.770;9.250;2023-11-21T12:15:34;9.40;99.90
67273;DHT22;54190;49.770;9.250;2023-11-21T12:18:00;9.50;99.90
67273;DHT22;54190;49.770;9.250;2023-11-21T12:20:27;9.60;99.90
67273;DHT22;54190;49.770;9.250;2023-11-21T12:22:54;9.70;99.90
67273;DHT22;54190;49.770;9.250;2023-11-21T12:25:30;9.70;99.90
67273;DHT22;54190;49.770;9.250;2023-11-21T12:27:58;9.90;99.90
67273;DHT22;54190;49.770;9.250;2023-11-21T12:30:27;10.00;99.90
67273;DHT22;54190;49.770;9.250;2023-11-21T12:33:01;9.90;99.90
67273;DHT22;54190;49.770;9.250;2023-11-21T12:35:30;9.90;99.90
67273;DHT22;54190;49.770;9.250;2023-11-21T12:37:59;9.90;99.90
67273;DHT22;54190;49.770;9.250;2023-11-21T12:40:25;9.90;99.90
67273;DHT22;54190;49.770;9.250;2023-11-21T12:42:53;9.90;99.90
67273;DHT22;54190;49.770;9.250;2023-11-21T12:45:27;9.90;99.90
67273;DHT22;54190;49.770;9.250;2023-11-21T12:48:04;9.80;99.90
67273;DHT22;54190;49.770;9.250;2023-11-21T12:50:34;9.80;99.90
67273;DHT22;54190;49.770;9.250;2023-11-21T12:53:04;9.80;99.90
67273;DHT22;54190;49.770;9.250;2023-11-21T12:55:34;9.90;99.90
67273;DHT22;54190;49.770;9.250;2023-11-21T12:58:05;10.00;99.90
67273;DHT22;54190;49.770;9.250;2023-11-21T13:00:52;10.00;99.90
67273;DHT22;54190;49.770;9.250;2023-11-21T13:03:19;10.10;99.90
67273;DHT22;54190;49.770;9.250;2023-11-21T13:05:51;10.10;99.90
67273;DHT22;54190;49.770;9.250;2023-11-21T13:08:21;10.10;99.90
67273;DHT22;54190;49.770;9.250;2023-11-21T13:10:53;10.10;99.90
67273;DHT22;54190;49.770;9.250;2023-11-21T13:13:19;10.00;99.90
67273;DHT22;54190;49.770;9.250;2023-11-21T13:18:25;10.00;99.90
67273;DHT22;54190;49.770;9.250;2023-11-21T13:20:57;10.00;99.90
67273;DHT22;54190;49.770;9.250;2023-11-21T13:23:24;9.90;99.90
67273;DHT22;54190;49.770;9.250;2023-11-21T13:25:51;9.90;99.90
67273;DHT22;54190;49.770;9.250;2023-11-21T13:28:16;9.80;99.90
67273;DHT22;54190;49.770;9.250;2023-11-21T13:30:44;9.70;99.90
67273;DHT22;54190;49.770;9.250;2023-11-21T13:33:10;9.80;99.90
67273;DHT22;54190;49.770;9.250;2023-11-21T13:35:43;9.80;99.90
67273;DHT22;54190;49.770;9.250;2023-11-21T13:38:15;9.70;99.90
67273;DHT22;54190;49.770;9.250;2023-11-21T13:40:49;9.70;99.90
67273;DHT22;54190;49.770;9.250;2023-11-21T13:43:16;9.60;99.90
67273;DHT22;54190;49.770;9.250;2023-11-21T13:45:44;9.70;99.90
67273;DHT22;54190;49.770;9.250;2023-11-21T13:48:12;9.60;99.90
67273;DHT22;54190;49.770;9.250;2023-11-21T13:50:48;9.60;99.90
67273;DHT22;54190;49.770;9.250;2023-11-21T13:53:32;9.60;99.90
67273;DHT22;54190;49.770;9.250;2023-11-21T13:55:58;9.60;99.90
67273;DHT22;54190;49.770;9.250;2023-11-21T13:58:24;9.60;99.90
67273;DHT22;54190;49.770;9.250;2023-11-21T14:01:05;9.60;99.90
67273;DHT22;54190;49.770;9.250;2023-11-21T14:03:31;9.60;99.90
67273;DHT22;54190;49.770;9.250;2023-11-21T14:06:17;9.50;99.90
67273;DHT22;54190;49.770;9.250;2023-11-21T14:08:50;9.50;99.90
67273;DHT22;54190;49.770;9.250;2023-11-21T14:11:16;9.60;99.90
67273;DHT22;54190;49.770;9.250;2023-11-21T14:13:44;9.60;99.90
67273;DHT22;54190;49.770;9.250;2023-11-21T14:16:13;9.60;99.90
67273;DHT22;54190;49.770;9.250;2023-11-21T14:18:39;9.60;99.90
67273;DHT22;54190;49.770;9.250;2023-11-21T14:21:21;9.60;99.90
67273;DHT22;54190;49.770;9.250;2023-11-21T14:23:47;9.50;99.90
67273;DHT22;54190;49.770;9.250;2023-11-21T14:26:14;9.50;99.90
67273;DHT22;54190;49.770;9.250;2023-11-21T14:28:41;9.50;99.90
67273;DHT22;54190;49.770;9.250;2023-11-21T14:31:07;9.50;99.90
67273;DHT22;54190;49.770;9.250;2023-11-21T14:33:33;9.50;99.90
67273;DHT22;54190;49.770;9.250;2023-11-21T14:35:59;9.50;99.90
67273;DHT22;54190;49.770;9.250;2023-11-21T14:38:25;9.50;99.90
67273;DHT22;54190;49.770;9.250;2023-11-21T14:40:50;9.40;99.90
67273;DHT22;54190;49.770;9.250;2023-11-21T14:43:16;9.40;99.90
67273;DHT22;54190;49.770;9.250;2023-11-21T14:45:44;9.40;99.90
67273;DHT22;54190;49.770;9.250;2023-11-21T14:48:10;9.40;99.90
67273;DHT22;54190;49.770;9.250;2023-11-21T14:50:42;9.40;99.90
67273;DHT22;54190;49.770;9.250;2023-11-21T14:53:11;9.30;99.90
67273;DHT22;54190;49.770;9.250;2023-11-21T14:55:39;9.40;99.90
67273;DHT22;54190;49.770;9.250;2023-11-21T14:58:17;9.30;99.90
67273;DHT22;54190;49.770;9.250;2023-11-21T15:00:56;9.30;99.90
67273;DHT22;54190;49.770;9.250;2023-11-21T15:03:26;9.20;99.90
67273;DHT22;54190;49.770;9.250;2023-11-21T15:06:03;9.20;99.90
67273;DHT22;54190;49.770;9.250;2023-11-21T15:08:54;9.20;99.90
67273;DHT22;54190;49.770;9.250;2023-11-21T15:11:26;9.10;99.90
67273;DHT22;54190;49.770;9.250;2023-11-21T15:13:57;9.10;99.90
67273;DHT22;54190;49.770;9.250;2023-11-21T15:16:23;9.00;99.90
67273;DHT22;54190;49.770;9.250;2023-11-21T15:18:49;9.00;99.90
67273;DHT22;54190;49.770;9.250;2023-11-21T15:21:14;9.00;99.90
67273;DHT22;54190;49.770;9.250;2023-11-21T15:23:40;8.90;99.90
67273;DHT22;54190;49.770;9.250;2023-11-21T15:26:07;8.90;99.90
67273;DHT22;54190;49.770;9.250;2023-11-21T15:28:35;8.90;99.90
67273;DHT22;54190;49.770;9.250;2023-11-21T15:31:01;8.90;99.90
67273;DHT22;54190;49.770;9.250;2023-11-21T15:33:28;8.90;99.90
67273;DHT22;54190;49.770;9.250;2023-11-21T15:35:53;8.80;99.90
67273;DHT22;54190;49.770;9.250;2023-11-21T15:38:20;8.80;99.90
67273;DHT22;54190;49.770;9.250;2023-11-21T15:40:47;8.90;99.90
67273;DHT22;54190;49.770;9.250;2023-11-21T15:43:14;8.80;99.90
67273;DHT22;54190;49.770;9.250;2023-11-21T15:45:40;8.80;99.90
67273;DHT22;54190;49.770;9.250;2023-11-21T15:48:06;8.80;99.90
67273;DHT22;54190;49.770;9.250;2023-11-21T15:50:32;8.70;99.90
67273;DHT22;54190;49.770;9.250;2023-11-21T15:52:58;8.70;99.90
67273;DHT22;54190;49.770;9.250;2023-11-21T15:55:24;8.70;99.90
67273;DHT22;54190;49.770;9.250;2023-11-21T15:57:50;8.70;99.90
67273;DHT22;54190;49.770;9.250;2023-11-21T16:00:16;8.70;99.90